Погода Щельена 2 недели

Тверская область, Россия

19 мая-01 июня
  • 19мая
    Сегодня
    +10°
    +23°
    Практически безоблачно
    ВремяПогодаТемператураВлажностьДавлениеВетер, м/сВероятность осадков
    00:00Ясно и безоблачно+10°C67 %744 мм2.3 м/с2 %
    03:00Ясно и безоблачно+7°C78 %744 мм2.1 м/с2 %
    06:00Ясно и безоблачно+8°C78 %744 мм1.7 м/с2 %
    09:00Ясно и безоблачно+17°C58 %744 мм1.3 м/с2 %
    12:00Ясно и безоблачно+21°C42 %744 мм1.4 м/с2 %
    15:00Практически безоблачно+23°C38 %743 мм1.1 м/с2 %
    18:00Ясно и безоблачно+23°C39 %742 мм1.7 м/с2 %
    21:00Ясно и безоблачно+16°C59 %742 мм2.8 м/с2 %
  • 20мая
    Понедельник
    +8°
    +23°
    Практически безоблачно
    ВремяПогодаТемператураВлажностьДавлениеВетер, м/сВероятность осадков
    00:00Небольшая облачность+12°C64 %741 мм2.9 м/с2 %
    03:00Облачно с прояснениями+12°C67 %742 мм3.1 м/с2 %
    06:00Небольшая облачность+12°C73 %742 мм3.1 м/с2 %
    09:00Ясно и безоблачно+19°C64 %742 мм2.7 м/с2 %
    12:00Практически безоблачно+22°C42 %742 мм3.9 м/с6 %
    15:00Практически безоблачно+23°C42 %742 мм3.9 м/с8 %
    18:00Облачно с прояснениями, ливень+19°C65 %742 мм3.2 м/с31 %
    21:00Облачно с прояснениями+15°C85 %742 мм1.9 м/с12 %
  • 21мая
    Вторник
    +6°
    +23°
    Небольшая облачность
    ВремяПогодаТемператураВлажностьДавлениеВетер, м/сВероятность осадков
    00:00Ясно и безоблачно+11°C93 %742 мм2.0 м/с1 %
    03:00Практически безоблачно+9°C96 %743 мм1.9 м/с3 %
    06:00Практически безоблачно+11°C93 %744 мм1.8 м/с6 %
    09:00Облачно с прояснениями+17°C86 %745 мм1.1 м/с15 %
    12:00Практически безоблачно+20°C70 %745 мм1.0 м/с37 %
    15:00Небольшая облачность+22°C59 %745 мм2.0 м/с45 %
    18:00Облачно с прояснениями+22°C52 %744 мм1.8 м/с31 %
    21:00Облачно с прояснениями+17°C58 %744 мм2.6 м/с5 %
  • 22мая
    Среда
    +6°
    +21°
    Ясно и безоблачно
    ВремяПогодаТемператураВлажностьДавлениеВетер, м/сВероятность осадков
    00:00Ясно и безоблачно+11°C56 %745 мм2.5 м/с2 %
    03:00Ясно и безоблачно+8°C63 %745 мм3.2 м/с3 %
    06:00Ясно и безоблачно+7°C70 %746 мм3.2 м/с4 %
    09:00Ясно и безоблачно+15°C53 %747 мм3.7 м/с2 %
    12:00Ясно и безоблачно+19°C43 %747 мм4.0 м/с7 %
    15:00Ясно и безоблачно+21°C41 %747 мм4.0 м/с4 %
    18:00Ясно и безоблачно+20°C42 %747 мм4.2 м/с2 %
    21:00Ясно и безоблачно+15°C51 %748 мм4.6 м/с2 %
  • 23мая
    Четверг
    +4°
    +18°
    Ясно и безоблачно
    ВремяПогодаТемператураВлажностьДавлениеВетер, м/сВероятность осадков
    00:00Ясно и безоблачно+9°C49 %749 мм3.7 м/с2 %
    03:00Ясно и безоблачно+7°C56 %750 мм3.5 м/с2 %
    06:00Ясно и безоблачно+6°C60 %751 мм3.3 м/с2 %
    09:00Ясно и безоблачно+14°C43 %752 мм4.4 м/с2 %
    12:00Ясно и безоблачно+16°C38 %752 мм4.6 м/с2 %
    15:00Ясно и безоблачно+18°C34 %752 мм4.0 м/с4 %
    18:00Ясно и безоблачно+18°C34 %751 мм3.6 м/с4 %
    21:00Ясно и безоблачно+13°C52 %752 мм2.4 м/с2 %
Мы используем cookies
Соглашаюсь